BVX434B EDDF-EGBB
Flight info
| Callsign | BVX434B |
|---|---|
| Flight time | 1h 17m |
| Altitude | 36000 |
| Route | OBOKA3W OBOKA Z29 TORNU DCT GALSO Q63 ERING L179 LAM L610 HEMEL |
| Aircraft | B77W/H-SDE1E2E3FGHIJ2J3J4J5M1RWXY/LB1D1 |
Departure
| Time | 2026-05-06 10:51 |
|---|---|
| Airport | Frankfurt Main Airport (EDDF) |
Arrival
| Time | 2026-05-06 12:08 |
|---|---|
| Airport | Birmingham Airport (EGBB) |
| Time | Latitude | Longitude | Altitude | Speed | Heading |
|---|---|---|---|---|---|
| 2026-05-06 10:00 | 50.04669 | 8.56048 | 361 ft | 0 kts | 340° |
| 2026-05-06 10:37 | 50.04660 | 8.56053 | 361 ft | 3 kts | 340° |
| 2026-05-06 10:37 | 50.04641 | 8.56064 | 367 ft | 3 kts | 340° |
| 2026-05-06 10:37 | 50.04625 | 8.56073 | 368 ft | 3 kts | 338° |
| 2026-05-06 10:38 | 50.04607 | 8.56087 | 367 ft | 3 kts | 315° |
| 2026-05-06 10:38 | 50.04597 | 8.56110 | 366 ft | 3 kts | 280° |
| 2026-05-06 10:38 | 50.04597 | 8.56140 | 364 ft | 3 kts | 254° |
| 2026-05-06 10:38 | 50.04598 | 8.56148 | 365 ft | 3 kts | 251° |
| 2026-05-06 10:39 | 50.04591 | 8.56118 | 366 ft | 3 kts | 249° |
| 2026-05-06 10:39 | 50.04584 | 8.56089 | 364 ft | 3 kts | 249° |
| 2026-05-06 10:39 | 50.04578 | 8.56064 | 365 ft | 0 kts | 250° |
| 2026-05-06 10:42 | 50.04573 | 8.56043 | 364 ft | 4 kts | 249° |
| 2026-05-06 10:42 | 50.04560 | 8.56002 | 363 ft | 4 kts | 236° |
| 2026-05-06 10:42 | 50.04538 | 8.55971 | 363 ft | 4 kts | 212° |
| 2026-05-06 10:42 | 50.04511 | 8.55953 | 366 ft | 4 kts | 201° |
| 2026-05-06 10:43 | 50.04483 | 8.55938 | 369 ft | 4 kts | 197° |
| 2026-05-06 10:43 | 50.04454 | 8.55930 | 368 ft | 4 kts | 187° |
| 2026-05-06 10:43 | 50.04424 | 8.55934 | 367 ft | 4 kts | 162° |
| 2026-05-06 10:44 | 50.04382 | 8.55997 | 367 ft | 4 kts | 127° |
| 2026-05-06 10:44 | 50.04349 | 8.56041 | 367 ft | 9 kts | 148° |
| 2026-05-06 10:44 | 50.04303 | 8.56108 | 365 ft | 9 kts | 113° |
| 2026-05-06 10:44 | 50.04264 | 8.56185 | 366 ft | 9 kts | 148° |
| 2026-05-06 10:45 | 50.04204 | 8.56227 | 366 ft | 9 kts | 157° |
| 2026-05-06 10:45 | 50.04150 | 8.56269 | 367 ft | 3 kts | 136° |
| 2026-05-06 10:45 | 50.04139 | 8.56298 | 361 ft | 3 kts | 112° |
| 2026-05-06 10:45 | 50.04140 | 8.56351 | 366 ft | 13 kts | 76° |
| 2026-05-06 10:46 | 50.04195 | 8.56568 | 368 ft | 24 kts | 69° |
| 2026-05-06 10:46 | 50.04255 | 8.56816 | 370 ft | 24 kts | 70° |
| 2026-05-06 10:46 | 50.04314 | 8.57064 | 369 ft | 24 kts | 69° |
| 2026-05-06 10:46 | 50.04373 | 8.57312 | 370 ft | 24 kts | 69° |
| 2026-05-06 10:47 | 50.04434 | 8.57559 | 369 ft | 24 kts | 70° |
| 2026-05-06 10:47 | 50.04492 | 8.57806 | 373 ft | 24 kts | 70° |
| 2026-05-06 10:47 | 50.04551 | 8.58055 | 369 ft | 24 kts | 70° |
| 2026-05-06 10:47 | 50.04606 | 8.58285 | 377 ft | 17 kts | 69° |
| 2026-05-06 10:48 | 50.04646 | 8.58442 | 378 ft | 12 kts | 69° |
| 2026-05-06 10:48 | 50.04659 | 8.58497 | 378 ft | 0 kts | 69° |
| 2026-05-06 10:48 | 50.04662 | 8.58510 | 376 ft | 0 kts | 73° |
| 2026-05-06 10:48 | 50.04663 | 8.58522 | 375 ft | 6 kts | 84° |
| 2026-05-06 10:49 | 50.04656 | 8.58561 | 378 ft | 2 kts | 118° |
| 2026-05-06 10:49 | 50.04629 | 8.58589 | 377 ft | 8 kts | 165° |
| 2026-05-06 10:49 | 50.04577 | 8.58611 | 378 ft | 8 kts | 163° |
| 2026-05-06 10:49 | 50.04525 | 8.58623 | 380 ft | 8 kts | 192° |
| 2026-05-06 10:50 | 50.04485 | 8.58569 | 378 ft | 8 kts | 239° |
| 2026-05-06 10:50 | 50.04460 | 8.58472 | 378 ft | 19 kts | 249° |
| 2026-05-06 10:50 | 50.04317 | 8.57880 | 372 ft | 100 kts | 250° |
| 2026-05-06 10:50 | 50.03989 | 8.56499 | 375 ft | 168 kts | 249° |
| 2026-05-06 10:51 | 50.03605 | 8.54721 | 1028 ft | 177 kts | 248° |
| 2026-05-06 10:51 | 50.03177 | 8.52964 | 2083 ft | 176 kts | 247° |
| 2026-05-06 10:51 | 50.02718 | 8.51136 | 2895 ft | 187 kts | 244° |
| 2026-05-06 10:51 | 50.01979 | 8.49450 | 3665 ft | 195 kts | 224° |
| 2026-05-06 10:52 | 50.00832 | 8.48289 | 4512 ft | 200 kts | 201° |
| 2026-05-06 10:52 | 49.99463 | 8.47820 | 5355 ft | 204 kts | 191° |
| 2026-05-06 10:52 | 49.98037 | 8.47510 | 6112 ft | 208 kts | 191° |
| 2026-05-06 10:52 | 49.96599 | 8.47195 | 6910 ft | 208 kts | 191° |
| 2026-05-06 10:53 | 49.95152 | 8.46726 | 7463 ft | 223 kts | 198° |
| 2026-05-06 10:53 | 49.93592 | 8.46000 | 7844 ft | 246 kts | 199° |
| 2026-05-06 10:53 | 49.91915 | 8.44991 | 8187 ft | 264 kts | 214° |
| 2026-05-06 10:53 | 49.90653 | 8.42984 | 9071 ft | 265 kts | 237° |
| 2026-05-06 10:54 | 49.89702 | 8.40507 | 9922 ft | 270 kts | 238° |
| 2026-05-06 10:54 | 49.88807 | 8.37905 | 10582 ft | 281 kts | 249° |
| 2026-05-06 10:54 | 49.88567 | 8.34753 | 10809 ft | 311 kts | 271° |
| 2026-05-06 10:54 | 49.88778 | 8.31251 | 11041 ft | 342 kts | 273° |
| 2026-05-06 10:55 | 49.89093 | 8.27492 | 11484 ft | 361 kts | 283° |
| 2026-05-06 10:55 | 49.90203 | 8.23939 | 12415 ft | 372 kts | 303° |
| 2026-05-06 10:55 | 49.91795 | 8.20713 | 13404 ft | 381 kts | 304° |
| 2026-05-06 10:55 | 49.93412 | 8.17400 | 14454 ft | 388 kts | 304° |
| 2026-05-06 10:56 | 49.95166 | 8.14172 | 15388 ft | 396 kts | 312° |
| 2026-05-06 10:56 | 49.97228 | 8.11255 | 16352 ft | 404 kts | 317° |
| 2026-05-06 10:56 | 49.99415 | 8.08467 | 17350 ft | 410 kts | 319° |
| 2026-05-06 10:56 | 50.01651 | 8.05658 | 18300 ft | 416 kts | 319° |
| 2026-05-06 10:57 | 50.03902 | 8.02783 | 19159 ft | 422 kts | 318° |
| 2026-05-06 10:57 | 50.06163 | 7.99836 | 20057 ft | 425 kts | 317° |
| 2026-05-06 10:57 | 50.08397 | 7.96875 | 20952 ft | 429 kts | 316° |
| 2026-05-06 10:57 | 50.10671 | 7.93829 | 21824 ft | 433 kts | 316° |
| 2026-05-06 10:58 | 50.12959 | 7.90746 | 22653 ft | 438 kts | 316° |
| 2026-05-06 10:58 | 50.15277 | 7.87615 | 23448 ft | 443 kts | 316° |
| 2026-05-06 10:58 | 50.17622 | 7.84447 | 24131 ft | 448 kts | 315° |
| 2026-05-06 10:58 | 50.19992 | 7.81243 | 24842 ft | 452 kts | 315° |
| 2026-05-06 10:59 | 50.22375 | 7.78019 | 25567 ft | 454 kts | 315° |
| 2026-05-06 10:59 | 50.24771 | 7.74788 | 26265 ft | 458 kts | 316° |
| 2026-05-06 10:59 | 50.27432 | 7.71973 | 26774 ft | 472 kts | 329° |
| 2026-05-06 10:59 | 50.30489 | 7.69968 | 27450 ft | 478 kts | 335° |
| 2026-05-06 11:00 | 50.33617 | 7.68127 | 28085 ft | 481 kts | 334° |
| 2026-05-06 11:00 | 50.36728 | 7.66146 | 28654 ft | 484 kts | 332° |
| 2026-05-06 11:00 | 50.39826 | 7.64046 | 29192 ft | 487 kts | 332° |
| 2026-05-06 11:00 | 50.42922 | 7.61894 | 29747 ft | 490 kts | 332° |
| 2026-05-06 11:01 | 50.46059 | 7.59705 | 30233 ft | 491 kts | 332° |
| 2026-05-06 11:01 | 50.49185 | 7.57535 | 30743 ft | 492 kts | 332° |
| 2026-05-06 11:01 | 50.52321 | 7.55368 | 31239 ft | 492 kts | 332° |
| 2026-05-06 11:01 | 50.55452 | 7.53201 | 31741 ft | 492 kts | 332° |
| 2026-05-06 11:02 | 50.58475 | 7.50705 | 32210 ft | 489 kts | 325° |
| 2026-05-06 11:02 | 50.61315 | 7.47767 | 32670 ft | 488 kts | 321° |
| 2026-05-06 11:02 | 50.64089 | 7.44690 | 33153 ft | 489 kts | 322° |
| 2026-05-06 11:02 | 50.66856 | 7.41671 | 33607 ft | 490 kts | 323° |
| 2026-05-06 11:03 | 50.69700 | 7.38699 | 34071 ft | 490 kts | 324° |
| 2026-05-06 11:03 | 50.72553 | 7.35745 | 34474 ft | 487 kts | 322° |
| 2026-05-06 11:03 | 50.75043 | 7.32164 | 34748 ft | 483 kts | 305° |
| 2026-05-06 11:03 | 50.76731 | 7.27658 | 35087 ft | 475 kts | 292° |
| 2026-05-06 11:04 | 50.78140 | 7.22934 | 35372 ft | 477 kts | 292° |
| 2026-05-06 11:04 | 50.79594 | 7.18202 | 35748 ft | 478 kts | 293° |
| 2026-05-06 11:04 | 50.81088 | 7.13478 | 35890 ft | 482 kts | 294° |
| 2026-05-06 11:05 | 50.84135 | 7.04053 | 35892 ft | 479 kts | 294° |
| 2026-05-06 11:05 | 50.87148 | 6.94711 | 35872 ft | 476 kts | 294° |
| 2026-05-06 11:06 | 50.90156 | 6.85364 | 35871 ft | 476 kts | 294° |
| 2026-05-06 11:06 | 50.93160 | 6.76016 | 35875 ft | 476 kts | 294° |
| 2026-05-06 11:07 | 50.96141 | 6.66697 | 35885 ft | 478 kts | 294° |
| 2026-05-06 11:07 | 50.99149 | 6.57256 | 35864 ft | 479 kts | 294° |
| 2026-05-06 11:08 | 51.02144 | 6.47820 | 35860 ft | 478 kts | 294° |
| 2026-05-06 11:08 | 51.05123 | 6.38398 | 35859 ft | 477 kts | 294° |
| 2026-05-06 11:09 | 51.08082 | 6.29003 | 35856 ft | 475 kts | 294° |
| 2026-05-06 11:09 | 51.11032 | 6.19602 | 35875 ft | 475 kts | 294° |
| 2026-05-06 11:10 | 51.13853 | 6.10118 | 35875 ft | 473 kts | 289° |
| 2026-05-06 11:10 | 51.15686 | 6.00091 | 35869 ft | 471 kts | 281° |
| 2026-05-06 11:11 | 51.17236 | 5.89937 | 35865 ft | 470 kts | 282° |
| 2026-05-06 11:11 | 51.18989 | 5.79896 | 35863 ft | 472 kts | 286° |
| 2026-05-06 11:12 | 51.21154 | 5.70066 | 35870 ft | 473 kts | 287° |
| 2026-05-06 11:12 | 51.23356 | 5.60174 | 35858 ft | 474 kts | 287° |
| 2026-05-06 11:13 | 51.25536 | 5.50242 | 35876 ft | 474 kts | 287° |
| 2026-05-06 11:13 | 51.27695 | 5.40284 | 35865 ft | 475 kts | 287° |
| 2026-05-06 11:14 | 51.29840 | 5.30325 | 35870 ft | 474 kts | 287° |
| 2026-05-06 11:14 | 51.31981 | 5.20337 | 35878 ft | 474 kts | 287° |
| 2026-05-06 11:15 | 51.34098 | 5.10419 | 35895 ft | 474 kts | 287° |
| 2026-05-06 11:15 | 51.36215 | 5.00450 | 35905 ft | 473 kts | 287° |
| 2026-05-06 11:16 | 51.38325 | 4.90465 | 35918 ft | 473 kts | 287° |
| 2026-05-06 11:16 | 51.40425 | 4.80482 | 35916 ft | 473 kts | 286° |
| 2026-05-06 11:16 | 51.41471 | 4.75495 | 35763 ft | 470 kts | 285° |
| 2026-05-06 11:17 | 51.42159 | 4.72209 | 35819 ft | 468 kts | 284° |
| 2026-05-06 11:17 | 51.44217 | 4.62339 | 35897 ft | 465 kts | 284° |
| 2026-05-06 11:18 | 51.46257 | 4.52496 | 35906 ft | 465 kts | 284° |
| 2026-05-06 11:18 | 51.48285 | 4.42662 | 35914 ft | 465 kts | 284° |
| 2026-05-06 11:19 | 51.50307 | 4.32808 | 35922 ft | 465 kts | 284° |
| 2026-05-06 11:19 | 51.52322 | 4.22950 | 35909 ft | 464 kts | 284° |
| 2026-05-06 11:20 | 51.54651 | 4.11493 | 35903 ft | 464 kts | 284° |
| 2026-05-06 11:20 | 51.56320 | 4.03235 | 35902 ft | 463 kts | 284° |
| 2026-05-06 11:21 | 51.58303 | 3.93384 | 35898 ft | 463 kts | 284° |
| 2026-05-06 11:21 | 51.60277 | 3.83522 | 35915 ft | 463 kts | 284° |
| 2026-05-06 11:22 | 51.62233 | 3.73706 | 35904 ft | 464 kts | 284° |
| 2026-05-06 11:22 | 51.64196 | 3.63805 | 35907 ft | 464 kts | 284° |
| 2026-05-06 11:23 | 51.66153 | 3.53885 | 35912 ft | 465 kts | 284° |
| 2026-05-06 11:23 | 51.68103 | 3.43945 | 35918 ft | 465 kts | 284° |
| 2026-05-06 11:24 | 51.70046 | 3.33995 | 35928 ft | 465 kts | 285° |
| 2026-05-06 11:24 | 51.71952 | 3.24092 | 35929 ft | 464 kts | 282° |
| 2026-05-06 11:25 | 51.72785 | 3.13858 | 35938 ft | 459 kts | 269° |
| 2026-05-06 11:25 | 51.72227 | 3.03666 | 35942 ft | 456 kts | 259° |
| 2026-05-06 11:26 | 51.71280 | 2.93526 | 35934 ft | 456 kts | 259° |
| 2026-05-06 11:26 | 51.70371 | 2.83407 | 35941 ft | 457 kts | 260° |
| 2026-05-06 11:27 | 51.69482 | 2.73262 | 35938 ft | 457 kts | 260° |
| 2026-05-06 11:27 | 51.68580 | 2.63113 | 35945 ft | 457 kts | 260° |
| 2026-05-06 11:28 | 51.67670 | 2.52978 | 35940 ft | 457 kts | 260° |
| 2026-05-06 11:28 | 51.66740 | 2.42845 | 35945 ft | 457 kts | 259° |
| 2026-05-06 11:29 | 51.65786 | 2.32722 | 35949 ft | 458 kts | 259° |
| 2026-05-06 11:29 | 51.64824 | 2.22574 | 35950 ft | 458 kts | 259° |
| 2026-05-06 11:30 | 51.63857 | 2.12429 | 35954 ft | 458 kts | 259° |
| 2026-05-06 11:30 | 51.62929 | 2.02334 | 35953 ft | 459 kts | 260° |
| 2026-05-06 11:31 | 51.62010 | 1.92161 | 35970 ft | 459 kts | 260° |
| 2026-05-06 11:31 | 51.61062 | 1.82014 | 35959 ft | 459 kts | 260° |
| 2026-05-06 11:32 | 51.60109 | 1.71855 | 35964 ft | 459 kts | 260° |
| 2026-05-06 11:32 | 51.59284 | 1.61660 | 35962 ft | 460 kts | 265° |
| 2026-05-06 11:33 | 51.59451 | 1.51364 | 35981 ft | 462 kts | 272° |
| 2026-05-06 11:33 | 51.59953 | 1.41051 | 35968 ft | 462 kts | 272° |
| 2026-05-06 11:34 | 51.60397 | 1.30730 | 35969 ft | 463 kts | 272° |
| 2026-05-06 11:34 | 51.60808 | 1.20377 | 35967 ft | 464 kts | 271° |
| 2026-05-06 11:35 | 51.61204 | 1.10014 | 35967 ft | 464 kts | 271° |
| 2026-05-06 11:35 | 51.61596 | 0.99643 | 35968 ft | 464 kts | 271° |
| 2026-05-06 11:36 | 51.61983 | 0.89274 | 35961 ft | 465 kts | 272° |
| 2026-05-06 11:36 | 51.62421 | 0.78940 | 35972 ft | 466 kts | 272° |
| 2026-05-06 11:37 | 51.62809 | 0.68527 | 35964 ft | 466 kts | 271° |
| 2026-05-06 11:37 | 51.62951 | 0.63312 | 35742 ft | 469 kts | 270° |
| 2026-05-06 11:37 | 51.63125 | 0.57992 | 34809 ft | 478 kts | 271° |
| 2026-05-06 11:37 | 51.63332 | 0.52662 | 33967 ft | 477 kts | 271° |
| 2026-05-06 11:38 | 51.63531 | 0.47344 | 33134 ft | 474 kts | 271° |
| 2026-05-06 11:38 | 51.63716 | 0.42069 | 32480 ft | 468 kts | 270° |
| 2026-05-06 11:38 | 51.63891 | 0.36883 | 31887 ft | 462 kts | 270° |
| 2026-05-06 11:38 | 51.64062 | 0.31745 | 31282 ft | 457 kts | 270° |
| 2026-05-06 11:39 | 51.64231 | 0.26653 | 30705 ft | 453 kts | 270° |
| 2026-05-06 11:39 | 51.64413 | 0.21607 | 30131 ft | 450 kts | 272° |
| 2026-05-06 11:39 | 51.64879 | 0.16680 | 29480 ft | 449 kts | 279° |
| 2026-05-06 11:39 | 51.65682 | 0.11832 | 28874 ft | 447 kts | 285° |
| 2026-05-06 11:40 | 51.66774 | 0.07154 | 28283 ft | 445 kts | 291° |
| 2026-05-06 11:40 | 51.68055 | 0.02640 | 27707 ft | 441 kts | 292° |
| 2026-05-06 11:40 | 51.69350 | -0.01832 | 27151 ft | 437 kts | 292° |
| 2026-05-06 11:40 | 51.70614 | -0.06216 | 26569 ft | 434 kts | 292° |
| 2026-05-06 11:41 | 51.71873 | -0.10629 | 25999 ft | 431 kts | 292° |
| 2026-05-06 11:41 | 51.73114 | -0.15025 | 25445 ft | 428 kts | 292° |
| 2026-05-06 11:41 | 51.74339 | -0.19393 | 24883 ft | 425 kts | 292° |
| 2026-05-06 11:41 | 51.75473 | -0.23454 | 24366 ft | 423 kts | 292° |
| 2026-05-06 11:42 | 51.76663 | -0.27721 | 23830 ft | 420 kts | 292° |
| 2026-05-06 11:42 | 51.77834 | -0.31927 | 23245 ft | 417 kts | 292° |
| 2026-05-06 11:42 | 51.79021 | -0.36195 | 22606 ft | 414 kts | 292° |
| 2026-05-06 11:42 | 51.80308 | -0.40298 | 22028 ft | 407 kts | 303° |
| 2026-05-06 11:43 | 51.82231 | -0.43605 | 21666 ft | 403 kts | 321° |
| 2026-05-06 11:43 | 51.84580 | -0.45987 | 21337 ft | 396 kts | 328° |
| 2026-05-06 11:43 | 51.86951 | -0.48193 | 20983 ft | 392 kts | 328° |
| 2026-05-06 11:44 | 51.91655 | -0.52701 | 20301 ft | 394 kts | 327° |
| 2026-05-06 11:44 | 51.94005 | -0.55004 | 19967 ft | 394 kts | 327° |
| 2026-05-06 11:44 | 51.96345 | -0.57297 | 19615 ft | 393 kts | 327° |
| 2026-05-06 11:44 | 51.98683 | -0.59582 | 19304 ft | 391 kts | 328° |
| 2026-05-06 11:45 | 52.00981 | -0.61830 | 18960 ft | 389 kts | 327° |
| 2026-05-06 11:45 | 52.03291 | -0.64094 | 18613 ft | 387 kts | 328° |
| 2026-05-06 11:45 | 52.05589 | -0.66347 | 18283 ft | 384 kts | 327° |
| 2026-05-06 11:45 | 52.07870 | -0.68586 | 17908 ft | 382 kts | 327° |
| 2026-05-06 11:46 | 52.10132 | -0.70810 | 17541 ft | 379 kts | 327° |
| 2026-05-06 11:46 | 52.12375 | -0.73019 | 17207 ft | 375 kts | 328° |
| 2026-05-06 11:46 | 52.14605 | -0.75218 | 16869 ft | 372 kts | 328° |
| 2026-05-06 11:46 | 52.16812 | -0.77396 | 16555 ft | 369 kts | 327° |
| 2026-05-06 11:47 | 52.19000 | -0.79558 | 16240 ft | 366 kts | 328° |
| 2026-05-06 11:47 | 52.21173 | -0.81708 | 15915 ft | 364 kts | 328° |
| 2026-05-06 11:47 | 52.23236 | -0.83917 | 15595 ft | 355 kts | 318° |
| 2026-05-06 11:47 | 52.24789 | -0.87087 | 15287 ft | 356 kts | 297° |
| 2026-05-06 11:48 | 52.25613 | -0.90887 | 14997 ft | 356 kts | 283° |
| 2026-05-06 11:48 | 52.26144 | -0.94829 | 14697 ft | 357 kts | 282° |
| 2026-05-06 11:48 | 52.26652 | -0.98738 | 14380 ft | 356 kts | 282° |
| 2026-05-06 11:48 | 52.27167 | -1.02679 | 14070 ft | 352 kts | 282° |
| 2026-05-06 11:49 | 52.27679 | -1.06556 | 13746 ft | 347 kts | 282° |
| 2026-05-06 11:49 | 52.28191 | -1.10372 | 13426 ft | 341 kts | 282° |
| 2026-05-06 11:49 | 52.28697 | -1.14128 | 13110 ft | 337 kts | 282° |
| 2026-05-06 11:49 | 52.29201 | -1.17858 | 12799 ft | 336 kts | 282° |
| 2026-05-06 11:50 | 52.29703 | -1.21578 | 12507 ft | 339 kts | 282° |
| 2026-05-06 11:50 | 52.30219 | -1.25386 | 12189 ft | 342 kts | 282° |
| 2026-05-06 11:50 | 52.30730 | -1.29175 | 11894 ft | 341 kts | 282° |
| 2026-05-06 11:50 | 52.31236 | -1.32943 | 11603 ft | 338 kts | 282° |
| 2026-05-06 11:51 | 52.31735 | -1.36667 | 11319 ft | 334 kts | 282° |
| 2026-05-06 11:51 | 52.32225 | -1.40339 | 11020 ft | 328 kts | 282° |
| 2026-05-06 11:51 | 52.32704 | -1.43942 | 10736 ft | 321 kts | 283° |
| 2026-05-06 11:51 | 52.33175 | -1.47484 | 10457 ft | 316 kts | 283° |
| 2026-05-06 11:52 | 52.33635 | -1.50949 | 10182 ft | 310 kts | 282° |
| 2026-05-06 11:52 | 52.34088 | -1.54370 | 9958 ft | 305 kts | 283° |
| 2026-05-06 11:52 | 52.34527 | -1.57690 | 9851 ft | 293 kts | 283° |
| 2026-05-06 11:52 | 52.34952 | -1.60911 | 9666 ft | 286 kts | 283° |
| 2026-05-06 11:53 | 52.35365 | -1.64058 | 9387 ft | 282 kts | 283° |
| 2026-05-06 11:53 | 52.35699 | -1.67212 | 9009 ft | 279 kts | 273° |
| 2026-05-06 11:53 | 52.35667 | -1.70324 | 8923 ft | 271 kts | 267° |
| 2026-05-06 11:53 | 52.35526 | -1.73346 | 8817 ft | 269 kts | 266° |
| 2026-05-06 11:54 | 52.35371 | -1.76424 | 8728 ft | 267 kts | 267° |
| 2026-05-06 11:54 | 52.35228 | -1.79445 | 8646 ft | 265 kts | 267° |
| 2026-05-06 11:54 | 52.35097 | -1.82439 | 8555 ft | 264 kts | 267° |
| 2026-05-06 11:54 | 52.34972 | -1.85431 | 8473 ft | 263 kts | 267° |
| 2026-05-06 11:55 | 52.34850 | -1.88417 | 8385 ft | 263 kts | 267° |
| 2026-05-06 11:55 | 52.34732 | -1.91416 | 8311 ft | 267 kts | 267° |
| 2026-05-06 11:55 | 52.34613 | -1.94463 | 8223 ft | 269 kts | 267° |
| 2026-05-06 11:55 | 52.34494 | -1.97521 | 8131 ft | 268 kts | 268° |
| 2026-05-06 11:56 | 52.34375 | -2.00552 | 8033 ft | 266 kts | 268° |
| 2026-05-06 11:56 | 52.34256 | -2.03556 | 7965 ft | 263 kts | 268° |
| 2026-05-06 11:56 | 52.34154 | -2.06407 | 7892 ft | 258 kts | 273° |
| 2026-05-06 11:56 | 52.34596 | -2.09189 | 7792 ft | 256 kts | 304° |
| 2026-05-06 11:57 | 52.35883 | -2.11181 | 7733 ft | 259 kts | 333° |
| 2026-05-06 11:57 | 52.37608 | -2.11946 | 7657 ft | 259 kts | 359° |
| 2026-05-06 11:57 | 52.39341 | -2.11310 | 7517 ft | 256 kts | 27° |
| 2026-05-06 11:57 | 52.40628 | -2.09405 | 7403 ft | 249 kts | 57° |
| 2026-05-06 11:58 | 52.41205 | -2.06791 | 7278 ft | 243 kts | 81° |
| 2026-05-06 11:58 | 52.41098 | -2.04079 | 7132 ft | 238 kts | 107° |
| 2026-05-06 11:58 | 52.40369 | -2.01709 | 6981 ft | 234 kts | 122° |
| 2026-05-06 11:58 | 52.39442 | -1.99492 | 6698 ft | 237 kts | 121° |
| 2026-05-06 11:59 | 52.38460 | -1.97345 | 6466 ft | 235 kts | 129° |
| 2026-05-06 11:59 | 52.37407 | -1.95331 | 6203 ft | 233 kts | 130° |
| 2026-05-06 11:59 | 52.36331 | -1.93320 | 5877 ft | 234 kts | 130° |
| 2026-05-06 11:59 | 52.35251 | -1.91330 | 5548 ft | 235 kts | 130° |
| 2026-05-06 12:00 | 52.34148 | -1.89320 | 5122 ft | 241 kts | 130° |
| 2026-05-06 12:00 | 52.33018 | -1.87251 | 4672 ft | 244 kts | 130° |
| 2026-05-06 12:00 | 52.31871 | -1.85193 | 4220 ft | 247 kts | 130° |
| 2026-05-06 12:00 | 52.30713 | -1.83119 | 3772 ft | 253 kts | 131° |
| 2026-05-06 12:01 | 52.29524 | -1.80964 | 3292 ft | 257 kts | 130° |
| 2026-05-06 12:01 | 52.28324 | -1.78782 | 2848 ft | 259 kts | 130° |
| 2026-05-06 12:01 | 52.27138 | -1.76596 | 2498 ft | 253 kts | 125° |
| 2026-05-06 12:01 | 52.26380 | -1.74083 | 2199 ft | 244 kts | 100° |
| 2026-05-06 12:02 | 52.26333 | -1.71416 | 2057 ft | 226 kts | 75° |
| 2026-05-06 12:02 | 52.26783 | -1.69079 | 1980 ft | 207 kts | 68° |
| 2026-05-06 12:02 | 52.27355 | -1.66994 | 1988 ft | 197 kts | 54° |
| 2026-05-06 12:02 | 52.28134 | -1.65163 | 1994 ft | 196 kts | 51° |
| 2026-05-06 12:03 | 52.29004 | -1.63467 | 1985 ft | 194 kts | 36° |
| 2026-05-06 12:03 | 52.30217 | -1.62589 | 1982 ft | 193 kts | 7° |
| 2026-05-06 12:03 | 52.31103 | -1.62518 | 2005 ft | 192 kts | 0° |
| 2026-05-06 12:03 | 52.32392 | -1.62502 | 1995 ft | 180 kts | 0° |
| 2026-05-06 12:04 | 52.33619 | -1.62537 | 1974 ft | 172 kts | 351° |
| 2026-05-06 12:04 | 52.34656 | -1.63301 | 1997 ft | 158 kts | 331° |
| 2026-05-06 12:04 | 52.35586 | -1.64082 | 2001 ft | 147 kts | 334° |
| 2026-05-06 12:04 | 52.36478 | -1.64941 | 2024 ft | 154 kts | 329° |
| 2026-05-06 12:05 | 52.37362 | -1.65905 | 1994 ft | 148 kts | 328° |
| 2026-05-06 12:05 | 52.38189 | -1.66816 | 1932 ft | 143 kts | 329° |
| 2026-05-06 12:05 | 52.38995 | -1.67714 | 1753 ft | 138 kts | 329° |
| 2026-05-06 12:05 | 52.39783 | -1.68585 | 1527 ft | 134 kts | 328° |
| 2026-05-06 12:06 | 52.40557 | -1.69449 | 1394 ft | 137 kts | 328° |
| 2026-05-06 12:06 | 52.41352 | -1.70329 | 1176 ft | 136 kts | 327° |
| 2026-05-06 12:06 | 52.42139 | -1.71205 | 966 ft | 137 kts | 328° |
| 2026-05-06 12:06 | 52.42916 | -1.72064 | 768 ft | 134 kts | 327° |
| 2026-05-06 12:07 | 52.43694 | -1.72941 | 588 ft | 136 kts | 329° |
| 2026-05-06 12:07 | 52.44487 | -1.73811 | 383 ft | 138 kts | 328° |
| 2026-05-06 12:07 | 52.45252 | -1.74651 | 331 ft | 123 kts | 325° |
| 2026-05-06 12:07 | 52.45803 | -1.75266 | 323 ft | 71 kts | 326° |
| 2026-05-06 12:08 | 52.46070 | -1.75564 | 316 ft | 27 kts | 326° |
| 2026-05-06 12:08 | 52.46148 | -1.75613 | 317 ft | 8 kts | 7° |
| 2026-05-06 12:08 | 52.46164 | -1.75607 | 317 ft | 1 kts | 17° |
| 2026-05-06 12:08 | 52.46186 | -1.75580 | 317 ft | 5 kts | 49° |
| 2026-05-06 12:09 | 52.46213 | -1.75479 | 312 ft | 9 kts | 80° |
| 2026-05-06 12:09 | 52.46195 | -1.75382 | 311 ft | 9 kts | 126° |
| 2026-05-06 12:09 | 52.46146 | -1.75319 | 312 ft | 9 kts | 144° |
| 2026-05-06 12:09 | 52.46095 | -1.75259 | 311 ft | 9 kts | 144° |
| 2026-05-06 12:10 | 52.46045 | -1.75198 | 313 ft | 9 kts | 144° |
| 2026-05-06 12:10 | 52.45991 | -1.75144 | 312 ft | 9 kts | 150° |
| 2026-05-06 12:10 | 52.45938 | -1.75089 | 314 ft | 9 kts | 146° |
| 2026-05-06 12:10 | 52.45887 | -1.75033 | 314 ft | 9 kts | 146° |
| 2026-05-06 12:11 | 52.45835 | -1.74975 | 314 ft | 9 kts | 146° |
| 2026-05-06 12:11 | 52.45783 | -1.74917 | 316 ft | 9 kts | 145° |
| 2026-05-06 12:11 | 52.45732 | -1.74858 | 318 ft | 9 kts | 145° |
| 2026-05-06 12:11 | 52.45680 | -1.74800 | 318 ft | 9 kts | 145° |
| 2026-05-06 12:12 | 52.45628 | -1.74742 | 320 ft | 9 kts | 145° |
| 2026-05-06 12:12 | 52.45577 | -1.74684 | 323 ft | 9 kts | 146° |
| 2026-05-06 12:12 | 52.45525 | -1.74626 | 324 ft | 9 kts | 143° |
| 2026-05-06 12:12 | 52.45503 | -1.74536 | 326 ft | 9 kts | 81° |
| 2026-05-06 12:13 | 52.45511 | -1.74437 | 325 ft | 9 kts | 107° |
| 2026-05-06 12:13 | 52.45486 | -1.74350 | 326 ft | 7 kts | 115° |
| 2026-05-06 12:13 | 52.45484 | -1.74278 | 325 ft | 6 kts | 76° |
| 2026-05-06 12:13 | 52.45490 | -1.74237 | 327 ft | 0 kts | 82° |
| 2026-05-06 12:14 | 52.45490 | -1.74231 | 327 ft | 0 kts | 86° |
| 2026-05-06 12:14 | 52.45490 | -1.74226 | 327 ft | 1 kts | 91° |
| 2026-05-06 12:14 | 52.45487 | -1.74209 | 325 ft | 1 kts | 107° |
| 2026-05-06 12:14 | 52.45484 | -1.74202 | 325 ft | 0 kts | 115° |
| 2026-05-06 12:15 | 52.45484 | -1.74201 | 343 ft | 0 kts | 117° |
| 2026-05-06 12:15 | 52.45482 | -1.74197 | 325 ft | 1 kts | 121° |
| 2026-05-06 12:16 | 52.45480 | -1.74192 | 324 ft | 0 kts | 126° |
| 2026-05-06 12:16 | 52.45477 | -1.74188 | 324 ft | 0 kts | 130° |
| 2026-05-06 12:16 | 52.45475 | -1.74184 | 324 ft | 0 kts | 135° |
| 2026-05-06 12:16 | 52.45472 | -1.74181 | 324 ft | 0 kts | 140° |
| 2026-05-06 12:17 | 52.45469 | -1.74178 | 324 ft | 0 kts | 145° |
| 2026-05-06 12:17 | 52.45467 | -1.74175 | 324 ft | 0 kts | 147° |
| 2026-05-06 12:17 | 52.45464 | -1.74173 | 324 ft | 0 kts | 151° |
| 2026-05-06 12:17 | 52.45451 | -1.74165 | 327 ft | 2 kts | 158° |
| 2026-05-06 12:18 | 52.45442 | -1.74158 | 326 ft | 1 kts | 152° |
| 2026-05-06 12:18 | 52.45435 | -1.74151 | 324 ft | 1 kts | 149° |
| 2026-05-06 12:18 | 52.45433 | -1.74148 | 324 ft | 0 kts | 147° |
| 2026-05-06 12:18 | 52.45430 | -1.74145 | 324 ft | 1 kts | 147° |
| 2026-05-06 12:19 | 52.45429 | -1.74144 | 324 ft | 0 kts | 147° |